X  CloseMetar Aviation Weather Data     KIAH George Bush Intercontinental / Houston

Temperature

90°F Temperature

73°F Dewpoint

59% Humidity



Wind

 8 MPH

13 KM/H

 4 M/S

 7 KTS



210°
South South
West
Current Conditions

Mostly Scattered Clouds Mostly Scattered Clouds
Pressure 1013.22 (hPa) - 29.92 (in)
Visibility 10 (mi) - 16.1 (km)
Airport
Airport-code KIAH

Location George Bush Intercontinental / Houston 14 (mi)

Metar:
KIAH 171553Z 21007KT 10SM SCT029 SCT045 BKN250 32/23 A2992 RMK AO2 SLP132 T03170228

Time: 08-17-2019 10:53